Time;durP1;ratioP1;P1;durP2;ratioP2;P2;SDS_P1;SDS_P2;PMS_P1;PMS_P2;Temp;Humidity;BMP_temperature;BMP_pressure;BME280_temperature;BME280_humidity;BME280_pressure;Samples;Min_cycle;Max_cycle;Signal;HPM_P1;HPM_P2
2021/09/03 17:28:32;;;;;;;0.30;0.30;;;16.10;83.70;;;;;;5070676;28;20395;-80
2021/09/03 17:30:58;;;;;;;0.43;0.30;;;15.80;85.70;;;;;;5070601;28;20090;-81
2021/09/03 17:33:23;;;;;;;0.00;0.00;;;15.70;87.90;;;;;;5070711;28;20036;-82
2021/09/03 17:35:49;;;;;;;0.00;0.00;;;15.70;89.10;;;;;;5070737;28;20025;-82
2021/09/03 17:38:15;;;;;;;1.00;0.35;;;15.70;90.00;;;;;;5069321;28;20021;-82
2021/09/03 17:40:40;;;;;;;0.00;0.00;;;15.70;90.30;;;;;;5068813;28;20082;-81
2021/09/03 17:43:06;;;;;;;0.15;0.15;;;15.70;90.40;;;;;;5070489;28;20393;-82
2021/09/03 17:45:32;;;;;;;0.77;0.70;;;15.80;90.90;;;;;;5063938;28;20029;-80
2021/09/03 17:47:57;;;;;;;0.47;0.30;;;15.80;90.60;;;;;;5050256;28;20026;-79
2021/09/03 17:50:23;;;;;;;0.10;0.10;;;15.80;90.70;;;;;;5050360;28;20493;-81
2021/09/03 17:52:49;;;;;;;0.00;0.00;;;15.80;90.80;;;;;;5050434;28;20103;-81
2021/09/03 17:55:18;;;;;;;0.55;0.55;;;15.80;90.70;;;;;;5048863;28;20484;-82
2021/09/03 17:57:44;;;;;;;0.00;0.00;;;15.80;90.80;;;;;;5057605;28;20365;-83
2021/09/03 18:00:10;;;;;;;0.20;0.20;;;15.80;91.00;;;;;;5049986;28;20082;-85
2021/09/03 18:02:36;;;;;;;1.15;1.10;;;15.90;90.80;;;;;;5048724;28;20479;-86
2021/09/03 18:05:03;;;;;;;1.15;1.08;;;15.80;91.10;;;;;;5048907;28;20120;-81
2021/09/03 18:07:29;;;;;;;0.55;0.45;;;15.80;91.30;;;;;;5054873;28;20021;-83
2021/09/03 18:09:54;;;;;;;0.73;0.68;;;15.80;91.50;;;;;;5053941;28;20083;-86
2021/09/03 18:12:20;;;;;;;4.13;1.52;;;15.80;91.60;;;;;;5042268;28;20018;-86
2021/09/03 18:14:46;;;;;;;2.30;2.10;;;15.80;91.40;;;;;;5043200;28;20061;-84
2021/09/03 18:17:11;;;;;;;1.02;1.02;;;15.80;91.50;;;;;;5050113;28;20530;-84
2021/09/03 18:19:37;;;;;;;0.45;0.43;;;15.80;91.60;;;;;;5063107;28;20481;-83
2021/09/03 18:22:03;;;;;;;2.20;1.58;;;15.70;91.70;;;;;;5058053;28;20032;-82
2021/09/03 18:24:29;;;;;;;1.95;1.27;;;15.70;91.90;;;;;;5054616;28;20029;-85
2021/09/03 18:26:55;;;;;;;0.95;0.93;;;15.80;92.00;;;;;;5052996;28;20037;-81
2021/09/03 18:29:21;;;;;;;0.45;0.45;;;15.80;92.00;;;;;;5058900;28;20047;-81
2021/09/03 18:31:47;;;;;;;0.85;0.75;;;15.70;91.80;;;;;;5069512;28;20028;-81
2021/09/03 18:34:12;;;;;;;1.10;1.00;;;15.70;91.90;;;;;;5067797;28;20020;-84
2021/09/03 18:36:38;;;;;;;0.30;0.30;;;15.70;91.90;;;;;;5069363;28;20025;-81
2021/09/03 18:39:04;;;;;;;0.15;0.15;;;15.70;92.20;;;;;;5060674;28;20328;-82
2021/09/03 18:41:29;;;;;;;0.43;0.00;;;15.70;92.00;;;;;;5056159;28;20433;-81
2021/09/03 18:43:55;;;;;;;1.00;0.43;;;15.70;92.00;;;;;;5056052;28;20360;-81
2021/09/03 18:46:23;;;;;;;0.20;0.20;;;15.70;91.80;;;;;;5055994;28;20116;-81
2021/09/03 18:48:49;;;;;;;0.13;0.05;;;15.60;92.10;;;;;;5056002;28;20048;-80
2021/09/03 18:51:14;;;;;;;0.40;0.20;;;15.70;91.80;;;;;;5047563;28;20060;-83
2021/09/03 18:53:40;;;;;;;0.10;0.10;;;15.70;91.60;;;;;;5039894;28;20044;-83
2021/09/03 18:56:06;;;;;;;0.20;0.20;;;15.70;91.70;;;;;;5056014;28;20028;-80
2021/09/03 18:58:33;;;;;;;0.25;0.25;;;15.70;91.70;;;;;;5056026;28;20075;-81
2021/09/03 19:00:58;;;;;;;1.27;0.73;;;15.60;91.90;;;;;;5055968;28;20471;-81
2021/09/03 19:03:24;;;;;;;0.45;0.38;;;15.70;91.90;;;;;;5056257;28;20025;-82
2021/09/03 19:05:50;;;;;;;0.15;0.15;;;15.60;91.90;;;;;;5056256;28;20021;-84
2021/09/03 19:08:15;;;;;;;0.80;0.80;;;15.60;92.10;;;;;;5049210;28;20071;-83
2021/09/03 19:10:41;;;;;;;2.33;2.13;;;15.60;91.90;;;;;;5034987;28;20471;-82
2021/09/03 19:13:07;;;;;;;0.88;0.85;;;15.50;92.10;;;;;;5047559;28;20045;-83
2021/09/03 19:15:33;;;;;;;0.22;0.22;;;15.50;92.20;;;;;;5055830;28;20032;-82
2021/09/03 19:18:02;;;;;;;0.65;0.65;;;15.40;92.60;;;;;;5054506;28;20486;-82
2021/09/03 19:20:30;;;;;;;0.10;0.10;;;15.50;92.40;;;;;;5056008;28;20027;-80
2021/09/03 19:22:56;;;;;;;0.38;0.38;;;15.40;92.50;;;;;;5054225;28;20025;-82
2021/09/03 19:25:22;;;;;;;1.15;1.08;;;15.40;92.40;;;;;;5034425;28;20021;-82
2021/09/03 19:27:48;;;;;;;0.30;0.30;;;15.40;92.70;;;;;;5034012;28;20053;-82
2021/09/03 19:30:14;;;;;;;0.10;0.10;;;15.30;92.80;;;;;;5034050;28;20032;-82
2021/09/03 19:32:40;;;;;;;0.65;0.65;;;15.20;93.00;;;;;;5035524;28;20022;-82
2021/09/03 19:35:06;;;;;;;0.20;0.20;;;15.20;93.30;;;;;;5034194;28;20533;-82
2021/09/03 19:37:32;;;;;;;0.43;0.43;;;15.20;93.40;;;;;;5035458;28;20037;-83
2021/09/03 19:39:58;;;;;;;0.88;0.88;;;15.20;93.50;;;;;;5037010;28;20445;-80
2021/09/03 19:42:23;;;;;;;0.35;0.22;;;15.20;93.50;;;;;;5055227;28;20519;-81
2021/09/03 19:44:49;;;;;;;0.40;0.40;;;15.20;93.70;;;;;;5055217;28;20056;-82
2021/09/03 19:47:15;;;;;;;0.43;0.43;;;15.20;93.60;;;;;;5055382;28;20032;-83
2021/09/03 19:49:41;;;;;;;0.55;0.55;;;15.20;93.60;;;;;;5054543;28;20379;-82
2021/09/03 19:52:07;;;;;;;0.70;0.40;;;15.20;93.60;;;;;;5054676;28;20025;-81
2021/09/03 19:54:33;;;;;;;0.35;0.35;;;15.20;93.80;;;;;;5042022;28;20476;-89
2021/09/03 19:56:59;;;;;;;2.63;2.42;;;15.10;93.60;;;;;;5034709;28;20040;-87
2021/09/03 19:59:24;;;;;;;3.17;2.03;;;15.20;93.60;;;;;;5033852;28;20029;-82
2021/09/03 20:01:54;;;;;;;0.20;0.20;;;15.10;93.90;;;;;;5033665;28;20025;-82
2021/09/03 20:04:20;;;;;;;0.57;0.57;;;15.20;93.90;;;;;;5035292;28;20041;-83
2021/09/03 20:06:45;;;;;;;0.15;0.15;;;15.10;93.90;;;;;;5033462;28;20115;-84
2021/09/03 20:09:11;;;;;;;0.32;0.32;;;15.10;94.20;;;;;;5034711;28;20044;-81
2021/09/03 20:11:37;;;;;;;1.20;0.65;;;15.10;94.10;;;;;;5048150;28;20464;-82
2021/09/03 20:14:03;;;;;;;6.00;3.72;;;15.10;94.20;;;;;;5055028;28;20021;-81
2021/09/03 20:16:29;;;;;;;9.40;4.03;;;15.20;95.50;;;;;;5053445;28;20057;-82
2021/09/03 20:18:55;;;;;;;6.43;3.90;;;15.10;96.30;;;;;;5054562;28;20032;-81
2021/09/03 20:21:21;;;;;;;6.45;3.50;;;15.10;96.70;;;;;;5054557;28;20033;-83
2021/09/03 20:23:47;;;;;;;6.10;3.78;;;15.10;97.20;;;;;;5053233;28;20119;-83
2021/09/03 20:26:12;;;;;;;6.43;3.80;;;15.00;97.30;;;;;;5054399;28;20021;-82
2021/09/03 20:28:38;;;;;;;7.57;3.88;;;15.00;97.60;;;;;;5054706;28;20021;-83
2021/09/03 20:31:04;;;;;;;7.32;4.25;;;15.00;97.80;;;;;;5036793;28;20486;-81
2021/09/03 20:33:30;;;;;;;9.30;3.97;;;14.90;98.70;;;;;;5033220;28;20361;-82
2021/09/03 20:35:55;;;;;;;9.10;4.20;;;14.80;98.50;;;;;;5033017;28;20095;-82
2021/09/03 20:38:21;;;;;;;8.48;4.00;;;14.80;98.90;;;;;;5033071;28;20184;-81
2021/09/03 20:40:47;;;;;;;7.32;3.78;;;14.70;99.30;;;;;;5046843;28;20036;-81
2021/09/03 20:43:12;;;;;;;9.95;4.25;;;14.70;99.80;;;;;;5054140;28;20033;-81
2021/09/03 20:45:38;;;;;;;7.28;3.92;;;14.60;99.90;;;;;;5054054;28;20048;-81
2021/09/03 20:48:04;;;;;;;6.70;3.90;;;14.60;99.90;;;;;;5054257;28;20498;-81
2021/09/03 20:50:29;;;;;;;7.43;4.13;;;14.60;99.90;;;;;;5052543;28;20071;-81
2021/09/03 20:52:55;;;;;;;6.95;4.32;;;14.50;99.90;;;;;;5054230;28;20025;-81
2021/09/03 20:55:21;;;;;;;6.78;4.22;;;14.60;99.90;;;;;;5052676;28;20029;-81
2021/09/03 20:57:47;;;;;;;7.80;4.13;;;14.60;99.90;;;;;;5053858;28;20033;-81
2021/09/03 21:00:13;;;;;;;6.80;4.18;;;14.60;99.90;;;;;;5053639;28;20036;-81
2021/09/03 21:02:39;;;;;;;7.25;4.20;;;14.60;99.90;;;;;;5052362;28;20033;-82
2021/09/03 21:05:05;;;;;;;5.97;4.13;;;14.50;99.90;;;;;;5052471;28;20040;-81
2021/09/03 21:07:30;;;;;;;8.65;4.78;;;14.60;99.90;;;;;;5053683;28;20032;-81
2021/09/03 21:09:57;;;;;;;6.20;4.35;;;14.60;99.90;;;;;;5047238;28;20022;-82
2021/09/03 21:12:23;;;;;;;6.60;3.90;;;14.60;99.90;;;;;;5033789;28;20071;-83
2021/09/03 21:14:49;;;;;;;8.63;4.60;;;14.50;99.90;;;;;;5033785;28;20073;-82
2021/09/03 21:17:15;;;;;;;6.90;4.47;;;14.50;99.90;;;;;;5033617;28;20032;-82
2021/09/03 21:19:41;;;;;;;9.82;4.78;;;14.50;99.90;;;;;;5033742;28;20029;-82
2021/09/03 21:22:07;;;;;;;7.82;4.80;;;14.40;99.90;;;;;;5033198;28;20025;-82
2021/09/03 21:24:32;;;;;;;7.50;4.15;;;14.40;99.90;;;;;;5032474;28;20029;-81
2021/09/03 21:27:00;;;;;;;5.53;4.00;;;14.40;99.90;;;;;;5033307;28;20048;-82
2021/09/03 21:29:27;;;;;;;6.85;4.57;;;14.40;99.90;;;;;;5041655;28;20403;-82
2021/09/03 21:31:53;;;;;;;7.28;4.43;;;14.40;99.90;;;;;;5053206;28;20029;-82
2021/09/03 21:34:19;;;;;;;9.20;4.97;;;14.40;99.90;;;;;;5053580;28;20100;-81
2021/09/03 21:36:45;;;;;;;11.20;4.97;;;14.40;99.90;;;;;;5053742;28;20048;-82
2021/09/03 21:39:10;;;;;;;6.97;4.53;;;14.40;99.90;;;;;;5053694;28;20029;-82
2021/09/03 21:41:36;;;;;;;9.00;4.90;;;14.40;99.90;;;;;;5053454;28;20068;-84
2021/09/03 21:44:02;;;;;;;6.97;4.40;;;14.40;99.90;;;;;;5052113;28;20032;-81
2021/09/03 21:46:27;;;;;;;9.13;4.60;;;14.50;99.90;;;;;;5051764;28;20025;-81
2021/09/03 21:48:53;;;;;;;6.00;4.28;;;14.40;99.90;;;;;;5032267;28;20053;-82
2021/09/03 21:51:19;;;;;;;8.05;4.50;;;14.40;99.90;;;;;;5033442;28;20092;-81
2021/09/03 21:53:44;;;;;;;8.38;4.80;;;14.40;99.90;;;;;;5032139;28;20099;-82
2021/09/03 21:56:10;;;;;;;8.38;4.65;;;14.50;99.90;;;;;;5032139;28;20029;-82
2021/09/03 21:58:36;;;;;;;7.45;4.40;;;14.40;99.90;;;;;;5032009;28;20026;-83
2021/09/03 22:01:02;;;;;;;8.05;4.70;;;14.40;99.70;;;;;;5036987;28;20348;-83
2021/09/03 22:03:28;;;;;;;8.13;5.00;;;14.50;99.40;;;;;;5052008;28;20025;-83
2021/09/03 22:05:53;;;;;;;9.90;5.03;;;14.40;99.50;;;;;;5053211;28;20075;-85
2021/09/03 22:08:19;;;;;;;7.05;4.63;;;14.40;99.50;;;;;;5034401;28;20034;-82
2021/09/03 22:10:45;;;;;;;6.25;4.53;;;14.40;99.60;;;;;;5041674;28;20475;-84
2021/09/03 22:13:10;;;;;;;11.68;5.03;;;14.50;99.40;;;;;;5052243;28;20112;-82
2021/09/03 22:15:36;;;;;;;9.23;4.93;;;14.50;99.70;;;;;;5055741;28;20103;-82
2021/09/03 22:18:07;;;;;;;6.68;4.10;;;14.40;99.30;;;;;;5055650;28;20482;-82
2021/09/03 22:20:34;;;;;;;7.93;4.70;;;14.50;99.20;;;;;;5048833;28;20021;-83
2021/09/03 22:23:01;;;;;;;9.07;5.10;;;14.50;98.90;;;;;;5036956;28;20549;-82
2021/09/03 22:25:27;;;;;;;8.38;5.30;;;14.50;98.90;;;;;;5035514;28;20143;-82
2021/09/03 22:27:53;;;;;;;8.27;4.68;;;14.50;98.90;;;;;;5036488;28;20124;-81
2021/09/03 22:30:19;;;;;;;7.88;4.82;;;14.40;99.00;;;;;;5036762;28;20490;-82
2021/09/03 22:32:44;;;;;;;10.27;4.90;;;14.40;99.00;;;;;;5035398;28;20022;-80
2021/09/03 22:35:10;;;;;;;7.28;5.10;;;14.40;99.00;;;;;;5036612;28;20033;-82
2021/09/03 22:37:37;;;;;;;9.55;5.05;;;14.40;99.00;;;;;;5036616;28;20057;-82
2021/09/03 22:40:06;;;;;;;7.72;5.10;;;14.30;99.00;;;;;;5047116;28;20483;-81
2021/09/03 22:42:32;;;;;;;7.88;4.95;;;14.30;99.00;;;;;;5056046;28;20037;-81
2021/09/03 22:45:00;;;;;;;7.97;5.28;;;14.30;99.00;;;;;;5056667;28;20043;-81
2021/09/03 22:47:26;;;;;;;9.15;5.22;;;14.30;99.00;;;;;;5055020;28;20096;-82
2021/09/03 22:49:51;;;;;;;8.20;4.70;;;14.20;99.10;;;;;;5055001;28;20467;-80
2021/09/03 22:52:17;;;;;;;6.75;4.60;;;14.30;99.20;;;;;;5056261;28;20395;-82
2021/09/03 22:54:43;;;;;;;7.72;4.90;;;14.20;99.20;;;;;;5056246;28;20028;-81
2021/09/03 22:57:08;;;;;;;11.65;5.43;;;14.20;99.10;;;;;;5054940;28;20024;-81
2021/09/03 22:59:34;;;;;;;9.07;5.80;;;14.20;98.90;;;;;;5039201;28;20399;-80
2021/09/03 23:02:00;;;;;;;12.57;5.53;;;14.30;98.80;;;;;;5036205;28;20036;-80
2021/09/03 23:04:25;;;;;;;8.73;5.00;;;14.20;98.70;;;;;;5036427;28;20030;-81
2021/09/03 23:06:51;;;;;;;9.15;5.22;;;14.30;98.40;;;;;;5040287;28;20501;-80
2021/09/03 23:09:17;;;;;;;8.35;5.00;;;14.30;98.30;;;;;;5054678;28;20017;-80
2021/09/03 23:11:42;;;;;;;8.38;5.00;;;14.30;98.40;;;;;;5055944;28;20017;-83
2021/09/03 23:14:08;;;;;;;8.57;5.20;;;14.30;98.40;;;;;;5054544;28;20021;-81
2021/09/03 23:16:34;;;;;;;8.80;5.40;;;14.30;98.40;;;;;;5056096;28;20021;-84
2021/09/03 23:18:59;;;;;;;8.18;4.90;;;14.30;98.30;;;;;;5054548;28;20029;-81
2021/09/03 23:21:26;;;;;;;10.65;5.63;;;14.40;98.00;;;;;;5054445;28;20430;-80
2021/09/03 23:23:52;;;;;;;9.57;5.38;;;14.40;98.10;;;;;;5054625;28;20074;-82
2021/09/03 23:26:17;;;;;;;7.90;5.30;;;14.40;98.10;;;;;;5046305;28;20026;-81
2021/09/03 23:28:43;;;;;;;8.98;4.93;;;14.40;98.20;;;;;;5035888;28;20503;-82
2021/09/03 23:31:09;;;;;;;9.75;4.90;;;14.40;98.40;;;;;;5035534;28;20109;-82
2021/09/03 23:33:34;;;;;;;10.65;5.07;;;14.40;98.70;;;;;;5035537;28;20441;-82
2021/09/03 23:36:00;;;;;;;8.88;5.15;;;14.40;98.40;;;;;;5035556;28;20100;-82
2021/09/03 23:38:26;;;;;;;8.93;5.05;;;14.40;98.40;;;;;;5034766;28;20035;-82
2021/09/03 23:40:51;;;;;;;8.90;5.20;;;14.50;98.20;;;;;;5035374;28;20025;-80
2021/09/03 23:43:17;;;;;;;7.53;5.05;;;14.50;98.10;;;;;;5035523;28;20029;-80
2021/09/03 23:45:43;;;;;;;8.32;5.03;;;14.50;98.10;;;;;;5045722;28;20475;-80
2021/09/03 23:48:09;;;;;;;8.27;5.15;;;14.50;98.10;;;;;;5053892;28;20028;-80
2021/09/03 23:50:34;;;;;;;7.15;4.57;;;14.50;97.90;;;;;;5055169;28;20021;-81
2021/09/03 23:53:00;;;;;;;8.93;5.22;;;14.50;98.00;;;;;;5053914;28;20021;-82
2021/09/03 23:55:26;;;;;;;8.82;5.45;;;14.40;98.00;;;;;;5055124;28;20017;-82
2021/09/03 23:57:51;;;;;;;8.43;4.72;;;14.40;98.10;;;;;;5055079;28;20051;-81
